Time;durP1;ratioP1;P1;durP2;ratioP2;P2;SDS_P1;SDS_P2;PMS_P1;PMS_P2;Temp;Humidity;BMP_temperature;BMP_pressure;BME280_temperature;BME280_humidity;BME280_pressure;Samples;Min_cycle;Max_cycle;Signal;HPM_P1;HPM_P2
2023/07/03 00:02:11;;;;;;;10.93;7.70;;;;;;;19.49;47.47;98314.25;5072149;28;20037;-57
2023/07/03 00:04:37;;;;;;;9.80;7.70;;;;;;;19.56;47.62;98324.22;5074947;28;20461;-59
2023/07/03 00:07:04;;;;;;;14.02;8.25;;;;;;;19.58;47.79;98331.13;5075372;28;20040;-50
2023/07/03 00:09:30;;;;;;;11.00;8.15;;;;;;;19.59;47.65;98326.50;5072641;28;20055;-54
2023/07/03 00:11:56;;;;;;;14.55;8.75;;;;;;;19.63;47.68;98312.28;5073594;28;20094;-52
2023/07/03 00:14:22;;;;;;;12.52;8.63;;;;;;;19.67;48.07;98323.53;5071748;28;20040;-52
2023/07/03 00:16:47;;;;;;;13.80;8.70;;;;;;;19.62;48.02;98309.78;5072536;28;20032;-54
2023/07/03 00:19:13;;;;;;;11.65;8.77;;;;;;;19.49;47.86;98297.13;5072727;28;20423;-55
2023/07/03 00:21:46;;;;;;;11.60;9.52;;;;;;;19.61;48.41;98314.38;5072412;28;20032;-50
2023/07/03 00:24:13;;;;;;;14.80;8.70;;;;;;;19.57;48.13;98310.44;5072629;28;20082;-50
2023/07/03 00:26:39;;;;;;;13.20;9.13;;;;;;;19.61;48.05;98306.25;5072494;28;20119;-53
2023/07/03 00:29:05;;;;;;;14.25;9.10;;;;;;;19.60;48.29;98301.88;5071805;28;20035;-55
2023/07/03 00:31:31;;;;;;;14.27;8.80;;;;;;;19.68;48.21;98313.50;5073552;28;20028;-54
2023/07/03 00:33:58;;;;;;;13.73;8.82;;;;;;;19.51;48.13;98284.16;5072446;28;20032;-53
2023/07/03 00:36:23;;;;;;;13.18;9.07;;;;;;;19.71;48.44;98305.75;5071263;28;20094;-50
2023/07/03 00:38:49;;;;;;;15.98;9.45;;;;;;;19.65;48.32;98291.16;5072488;28;20021;-51
2023/07/03 00:41:14;;;;;;;13.02;9.40;;;;;;;19.71;48.19;98296.75;5074573;28;20036;-52
2023/07/03 00:43:41;;;;;;;12.25;9.10;;;;;;;19.67;48.55;98290.97;5078980;28;20052;-51
2023/07/03 00:46:08;;;;;;;13.73;9.50;;;;;;;19.63;48.68;98306.84;5079258;28;20036;-57
2023/07/03 00:48:34;;;;;;;16.42;10.35;;;;;;;19.55;49.03;98292.72;5079377;28;20045;-56
2023/07/03 00:51:00;;;;;;;15.85;9.18;;;;;;;19.58;49.31;98292.25;5079800;28;20047;-55
2023/07/03 00:53:26;;;;;;;12.27;8.98;;;;;;;19.57;49.10;98298.75;5078158;28;20435;-55
2023/07/03 00:55:51;;;;;;;15.85;8.95;;;;;;;19.59;49.37;98294.78;5079158;28;20036;-52
2023/07/03 00:58:17;;;;;;;11.80;9.32;;;;;;;19.67;49.23;98290.97;5077714;28;20040;-51
2023/07/03 01:00:51;;;;;;;17.00;9.15;;;;;;;19.77;49.32;98290.44;5078720;28;20040;-53
2023/07/03 01:03:26;;;;;;;13.32;9.05;;;;;;;19.84;49.36;98295.81;5078992;28;20028;-55
2023/07/03 01:05:55;;;;;;;15.55;9.48;;;;;;;19.66;49.25;98267.59;5078838;28;20370;-49
2023/07/03 01:08:22;;;;;;;16.60;10.05;;;;;;;19.90;49.08;98303.09;5078482;28;20040;-56
2023/07/03 01:10:48;;;;;;;14.30;9.50;;;;;;;19.89;49.04;98290.53;5078651;28;20028;-51
2023/07/03 01:13:16;;;;;;;17.35;9.57;;;;;;;19.98;48.91;98299.28;5080152;28;20107;-56
2023/07/03 01:15:43;;;;;;;17.63;10.35;;;;;;;20.00;49.15;98294.44;5078621;28;20446;-54
2023/07/03 01:18:10;;;;;;;13.93;9.88;;;;;;;19.94;49.24;98286.16;5078825;28;20431;-53
2023/07/03 01:21:02;;;;;;;16.92;9.40;;;;;;;20.15;49.18;98307.72;5078950;28;20048;-53
2023/07/03 01:23:58;;;;;;;13.65;9.50;;;;;;;20.22;49.04;98314.72;5078383;28;20044;-55
2023/07/03 01:26:26;;;;;;;20.40;9.75;;;;;;;20.00;49.36;98278.16;5074697;28;20036;-52
2023/07/03 01:28:57;;;;;;;11.70;9.82;;;;;;;20.21;49.42;98295.94;5077864;28;20028;-53
2023/07/03 01:31:28;;;;;;;14.10;9.50;;;;;;;20.23;49.80;98300.06;5078771;28;20044;-53
2023/07/03 01:33:55;;;;;;;12.90;9.30;;;;;;;20.27;50.42;98294.22;5080015;28;20107;-53
2023/07/03 01:36:23;;;;;;;16.88;9.70;;;;;;;20.34;50.74;98305.84;5078321;28;20124;-52
2023/07/03 01:38:51;;;;;;;14.15;10.10;;;;;;;20.34;51.79;98306.66;5078457;28;20043;-55
2023/07/03 01:41:18;;;;;;;13.23;9.35;;;;;;;20.32;52.12;98305.25;5078668;28;20028;-54
2023/07/03 01:43:45;;;;;;;14.65;9.05;;;;;;;20.36;52.48;98303.72;5078786;28;20025;-53
2023/07/03 01:46:12;;;;;;;12.82;8.68;;;;;;;20.39;53.65;98297.03;5078743;28;20039;-55
2023/07/03 01:48:37;;;;;;;11.15;8.68;;;;;;;20.40;54.16;98299.50;5078320;28;20079;-55
2023/07/03 01:51:06;;;;;;;12.50;8.85;;;;;;;20.44;54.15;98303.41;5078554;28;20064;-57
2023/07/03 01:53:42;;;;;;;11.90;8.93;;;;;;;20.47;54.46;98296.72;5074389;28;20029;-53
2023/07/03 01:56:14;;;;;;;15.35;9.40;;;;;;;20.33;55.28;98287.88;5077343;28;20047;-58
2023/07/03 01:58:43;;;;;;;15.48;10.13;;;;;;;20.49;55.68;98308.19;5075264;28;20040;-55
2023/07/03 02:01:15;;;;;;;16.10;9.85;;;;;;;20.43;56.33;98303.66;5073921;28;20144;-54
2023/07/03 02:03:40;;;;;;;14.15;10.07;;;;;;;20.45;56.75;98306.97;5075534;28;20024;-54
2023/07/03 02:06:14;;;;;;;13.27;9.85;;;;;;;20.49;56.75;98303.56;5075058;28;20123;-57
2023/07/03 02:08:39;;;;;;;12.20;9.60;;;;;;;20.38;57.47;98304.31;5075384;28;20066;-57
2023/07/03 02:11:15;;;;;;;14.05;9.95;;;;;;;20.45;57.21;98307.78;5074815;28;20029;-59
2023/07/03 02:13:40;;;;;;;14.63;9.88;;;;;;;20.44;57.40;98306.13;5075404;28;20038;-52
2023/07/03 02:16:06;;;;;;;14.40;9.75;;;;;;;20.41;57.50;98306.59;5074029;28;20481;-55
2023/07/03 02:18:31;;;;;;;15.73;9.57;;;;;;;20.43;57.51;98303.66;5074373;28;20036;-57
2023/07/03 02:21:17;;;;;;;13.68;10.02;;;;;;;20.46;57.56;98309.47;5074140;28;20173;-51
2023/07/03 02:23:43;;;;;;;12.30;9.48;;;;;;;20.20;57.42;98267.91;5057096;28;20114;-54
2023/07/03 02:26:13;;;;;;;17.38;9.88;;;;;;;20.37;57.76;98302.66;5074503;28;20127;-53
2023/07/03 02:28:40;;;;;;;14.90;10.05;;;;;;;20.38;58.00;98317.91;5074918;28;20047;-55
2023/07/03 02:31:06;;;;;;;15.77;10.20;;;;;;;20.34;57.80;98322.97;5074197;28;20351;-49
2023/07/03 02:33:32;;;;;;;13.07;9.52;;;;;;;20.14;58.06;98289.75;5074498;28;20052;-56
2023/07/03 02:36:01;;;;;;;15.02;10.95;;;;;;;20.23;58.04;98319.09;5074401;28;20029;-48
2023/07/03 02:38:27;;;;;;;14.40;10.00;;;;;;;20.23;58.28;98329.16;5074307;28;20457;-54
2023/07/03 02:40:52;;;;;;;16.13;10.20;;;;;;;20.21;58.54;98326.66;5075309;28;20062;-58
2023/07/03 02:43:18;;;;;;;12.63;10.38;;;;;;;20.27;58.25;98335.78;5074431;28;20033;-53
2023/07/03 02:45:43;;;;;;;15.23;10.27;;;;;;;20.36;58.11;98342.59;5074327;28;20420;-54
2023/07/03 02:48:10;;;;;;;16.50;9.85;;;;;;;20.43;57.98;98337.09;5074156;28;20029;-53
2023/07/03 02:50:36;;;;;;;12.07;9.73;;;;;;;20.57;57.46;98337.78;5074362;28;20033;-49
2023/07/03 02:53:02;;;;;;;18.40;10.45;;;;;;;20.78;56.87;98339.25;5074130;28;20036;-54
2023/07/03 02:55:28;;;;;;;14.10;10.50;;;;;;;20.94;56.48;98336.97;5073419;28;20032;-53
2023/07/03 02:57:55;;;;;;;14.10;9.68;;;;;;;21.16;55.79;98350.09;5073976;28;20478;-55
2023/07/03 03:00:21;;;;;;;14.40;9.52;;;;;;;21.23;55.69;98345.41;5073768;28;20054;-53
2023/07/03 03:02:48;;;;;;;17.48;9.70;;;;;;;21.20;55.56;98349.41;5073732;28;20028;-57
2023/07/03 03:05:14;;;;;;;15.20;10.25;;;;;;;21.03;56.09;98351.09;5072557;28;20068;-53
2023/07/03 03:07:39;;;;;;;12.95;9.73;;;;;;;20.90;56.83;98358.38;5074094;28;20509;-51
2023/07/03 03:10:06;;;;;;;13.75;10.20;;;;;;;20.87;57.01;98363.44;5073892;28;20119;-54
2023/07/03 03:12:31;;;;;;;12.05;9.68;;;;;;;20.87;57.11;98356.13;5073481;28;20032;-49
2023/07/03 03:14:58;;;;;;;10.70;9.32;;;;;;;20.88;57.14;98359.66;5074437;28;20094;-51
2023/07/03 03:17:23;;;;;;;11.98;9.27;;;;;;;20.86;57.11;98350.91;5073927;28;20083;-54
2023/07/03 03:19:49;;;;;;;11.48;9.45;;;;;;;20.82;57.27;98347.78;5091616;28;20036;-55
2023/07/03 03:22:15;;;;;;;11.70;9.60;;;;;;;20.94;57.26;98356.88;5093173;28;20030;-56
2023/07/03 03:24:40;;;;;;;13.35;10.02;;;;;;;21.18;56.90;98358.84;5093555;28;20114;-53
2023/07/03 03:27:06;;;;;;;16.52;9.88;;;;;;;21.70;55.56;98349.38;5093858;28;20032;-54
2023/07/03 03:29:41;;;;;;;13.32;9.25;;;;;;;22.60;53.42;98347.47;5093944;28;20036;-56
2023/07/03 03:32:07;;;;;;;12.68;9.38;;;;;;;23.25;51.35;98360.22;5093300;28;20054;-52
2023/07/03 03:34:34;;;;;;;14.15;9.18;;;;;;;23.57;50.21;98368.78;5090080;28;20060;-57
2023/07/03 03:37:01;;;;;;;15.82;9.57;;;;;;;23.96;49.68;98373.56;5091970;28;20031;-56
2023/07/03 03:39:26;;;;;;;13.23;8.80;;;;;;;24.51;48.20;98371.19;5093567;28;20351;-53
2023/07/03 03:41:52;;;;;;;10.73;8.57;;;;;;;25.17;46.32;98361.38;5093326;28;20024;-53
2023/07/03 03:44:17;;;;;;;15.98;8.55;;;;;;;25.91;44.62;98370.09;5092708;28;20111;-56
2023/07/03 03:46:43;;;;;;;12.32;8.55;;;;;;;26.67;43.57;98389.34;5090822;28;20347;-57
2023/07/03 03:49:11;;;;;;;13.02;8.27;;;;;;;27.24;41.92;98376.72;5093774;28;20957;-58
2023/07/03 03:51:37;;;;;;;12.20;8.32;;;;;;;28.01;40.48;98389.03;5093208;28;20024;-53
2023/07/03 03:54:04;;;;;;;8.98;7.85;;;;;;;28.43;38.79;98338.38;5093008;28;20414;-54
2023/07/03 03:56:30;;;;;;;9.82;7.68;;;;;;;29.20;37.71;98383.34;5091431;28;20435;-53
2023/07/03 03:58:56;;;;;;;10.25;7.30;;;;;;;29.73;36.52;98388.28;5093095;28;20054;-53
2023/07/03 04:01:21;;;;;;;7.50;6.75;;;;;;;30.24;35.82;98386.25;5091927;28;20051;-52
2023/07/03 04:03:47;;;;;;;8.27;7.47;;;;;;;30.94;34.35;98390.56;5093454;28;20032;-56
2023/07/03 04:06:16;;;;;;;7.50;6.57;;;;;;;31.03;34.10;98417.56;5090208;28;20156;-54
2023/07/03 04:08:42;;;;;;;8.27;7.05;;;;;;;30.47;34.80;98417.00;5092733;28;20417;-55
2023/07/03 04:11:08;;;;;;;10.48;7.38;;;;;;;30.06;35.35;98418.16;5092959;28;20320;-56
2023/07/03 04:13:34;;;;;;;12.60;6.40;;;;;;;29.67;35.95;98407.94;5092317;28;20035;-53
2023/07/03 04:16:01;;;;;;;11.23;7.15;;;;;;;29.57;36.46;98426.16;5089717;28;20028;-53
2023/07/03 04:18:28;;;;;;;11.20;6.40;;;;;;;29.46;36.60;98430.09;5092799;28;20051;-54
2023/07/03 04:20:54;;;;;;;6.80;6.20;;;;;;;28.96;37.32;98441.84;5092585;28;20024;-52
2023/07/03 04:23:20;;;;;;;6.80;6.20;;;;;;;28.33;38.80;98434.72;5092057;28;20031;-53
2023/07/03 04:25:46;;;;;;;9.38;6.22;;;;;;;27.76;39.38;98449.19;5090599;28;20093;-52
2023/07/03 04:28:13;;;;;;;10.13;6.85;;;;;;;27.27;40.19;98441.31;5072376;28;20063;-57
2023/07/03 04:30:38;;;;;;;10.82;7.10;;;;;;;27.23;40.90;98444.59;5073433;28;20418;-48
2023/07/03 04:33:04;;;;;;;8.50;6.35;;;;;;;27.14;40.79;98446.22;5073327;28;20124;-56
2023/07/03 04:35:30;;;;;;;8.10;6.40;;;;;;;26.68;41.92;98441.22;5071564;28;20068;-58
2023/07/03 04:37:56;;;;;;;7.45;6.35;;;;;;;26.38;42.36;98448.16;5072112;28;20035;-55
2023/07/03 04:40:22;;;;;;;7.13;6.28;;;;;;;26.23;42.14;98408.53;5070776;28;20512;-59
2023/07/03 04:42:49;;;;;;;6.35;5.60;;;;;;;26.77;41.53;98445.16;5072038;28;20040;-56
2023/07/03 04:45:16;;;;;;;11.23;5.95;;;;;;;27.07;41.38;98451.94;5071905;28;20024;-54
2023/07/03 04:47:41;;;;;;;9.27;6.13;;;;;;;26.91;41.44;98455.69;5071745;28;20031;-57
2023/07/03 04:50:14;;;;;;;9.15;6.20;;;;;;;26.58;42.26;98468.63;5072701;28;20028;-56
2023/07/03 04:52:40;;;;;;;7.50;6.65;;;;;;;25.94;43.37;98468.31;5073793;28;20086;-53
2023/07/03 04:55:08;;;;;;;8.85;6.43;;;;;;;25.54;44.38;98475.78;5072026;28;20398;-57
2023/07/03 04:57:38;;;;;;;8.23;6.25;;;;;;;25.40;44.66;98477.25;5071846;28;20052;-54
2023/07/03 05:00:15;;;;;;;11.05;6.10;;;;;;;25.28;44.88;98489.13;5068290;28;20037;-52
2023/07/03 05:02:47;;;;;;;8.13;6.47;;;;;;;24.88;46.36;98492.97;5071870;28;20032;-53
2023/07/03 05:05:14;;;;;;;7.38;5.97;;;;;;;24.52;46.73;98494.03;5071867;28;20512;-52
2023/07/03 05:07:41;;;;;;;9.80;6.18;;;;;;;24.10;47.18;98467.03;5071724;28;20031;-50
2023/07/03 05:10:09;;;;;;;7.68;5.78;;;;;;;23.97;47.84;98495.47;5071324;28;20025;-56
2023/07/03 05:12:35;;;;;;;9.75;5.95;;;;;;;23.94;48.43;98501.44;5070904;28;20450;-54
2023/07/03 05:15:01;;;;;;;9.13;5.63;;;;;;;23.89;48.17;98488.53;5071740;28;20051;-51
2023/07/03 05:17:27;;;;;;;7.40;5.95;;;;;;;23.86;47.71;98478.06;5071408;28;20024;-52
2023/07/03 05:19:53;;;;;;;8.95;5.53;;;;;;;24.33;46.77;98509.00;5071703;28;20332;-55
2023/07/03 05:22:18;;;;;;;7.38;5.82;;;;;;;24.56;46.39;98508.03;5071809;28;20133;-55
2023/07/03 05:24:44;;;;;;;7.57;5.80;;;;;;;24.74;46.16;98514.34;5070547;28;20036;-53
2023/07/03 05:27:09;;;;;;;8.70;5.97;;;;;;;25.45;44.77;98518.41;5074789;28;20039;-54
2023/07/03 05:29:35;;;;;;;10.02;6.07;;;;;;;27.53;39.75;98513.75;5075048;28;20134;-52
2023/07/03 05:32:01;;;;;;;7.25;5.22;;;;;;;30.08;34.72;98526.31;5075301;28;20107;-56
2023/07/03 05:34:27;;;;;;;8.23;5.10;;;;;;;31.16;32.02;98518.31;5074489;28;20027;-53
2023/07/03 05:36:53;;;;;;;5.85;4.47;;;;;;;32.66;29.39;98516.34;5076675;28;20028;-55
2023/07/03 05:39:20;;;;;;;8.93;4.28;;;;;;;32.71;29.49;98529.31;5075865;28;20078;-55
2023/07/03 05:41:45;;;;;;;6.68;4.80;;;;;;;32.72;29.12;98531.75;5074924;28;20115;-52
2023/07/03 05:44:11;;;;;;;7.30;4.60;;;;;;;32.66;29.29;98521.91;5075191;28;20096;-53
2023/07/03 05:46:36;;;;;;;6.28;5.18;;;;;;;33.68;27.76;98522.25;5075781;28;20048;-54
2023/07/03 05:49:02;;;;;;;10.05;3.97;;;;;;;35.11;25.40;98526.75;5074368;28;20103;-55
2023/07/03 05:51:27;;;;;;;8.52;4.30;;;;;;;36.08;23.94;98530.69;5075073;28;20370;-52
2023/07/03 05:53:53;;;;;;;7.15;3.67;;;;;;;38.09;21.88;98536.06;5075419;28;20123;-53
2023/07/03 05:56:19;;;;;;;7.38;4.00;;;;;;;40.45;18.94;98532.84;5074486;28;20036;-50
2023/07/03 05:58:45;;;;;;;4.63;3.97;;;;;;;41.00;18.31;98538.78;5074514;28;20045;-54
2023/07/03 06:01:10;;;;;;;5.80;3.67;;;;;;;40.60;18.35;98543.25;5074748;28;20028;-55
2023/07/03 06:03:36;;;;;;;6.57;3.60;;;;;;;40.09;18.27;98540.16;5074495;28;20393;-54
2023/07/03 06:06:04;;;;;;;6.43;3.35;;;;;;;40.40;17.93;98547.13;5073372;28;20037;-55
2023/07/03 06:08:30;;;;;;;8.55;3.58;;;;;;;40.71;17.10;98549.22;5074546;28;20024;-55
2023/07/03 06:10:56;;;;;;;5.32;2.85;;;;;;;42.14;16.00;98549.59;5074880;28;20367;-61
2023/07/03 06:13:22;;;;;;;4.63;3.13;;;;;;;43.95;13.86;98559.78;5075109;28;20028;-57
2023/07/03 06:15:47;;;;;;;7.53;3.38;;;;;;;44.95;13.03;98553.81;5074323;28;20455;-55
2023/07/03 06:18:14;;;;;;;4.90;3.60;;;;;;;45.52;12.65;98564.00;5074200;28;20034;-54
2023/07/03 06:20:40;;;;;;;4.28;3.10;;;;;;;45.45;12.89;98564.75;5074049;28;20032;-54
2023/07/03 06:23:06;;;;;;;4.65;3.03;;;;;;;46.20;12.01;98564.91;5073176;28;20427;-55
2023/07/03 06:25:32;;;;;;;3.20;2.88;;;;;;;47.04;11.29;98552.66;5074140;28;20043;-52
2023/07/03 06:27:58;;;;;;;3.22;2.60;;;;;;;47.70;10.86;98581.88;5074017;28;20524;-56
2023/07/03 06:30:24;;;;;;;4.22;3.03;;;;;;;48.20;9.99;98575.31;5074035;28;20111;-53
2023/07/03 06:32:49;;;;;;;6.57;2.90;;;;;;;48.55;9.79;98584.09;5074620;28;20029;-59
2023/07/03 06:35:16;;;;;;;3.58;2.40;;;;;;;49.16;9.12;98580.13;5074024;28;20031;-58
2023/07/03 06:37:42;;;;;;;7.03;2.92;;;;;;;49.54;8.70;98563.19;5092607;28;20032;-60
2023/07/03 06:40:10;;;;;;;4.50;2.60;;;;;;;49.67;8.89;98559.81;5093936;28;20074;-56
2023/07/03 06:42:37;;;;;;;5.65;2.78;;;;;;;49.43;9.17;98579.50;5094475;28;20043;-53
2023/07/03 06:45:03;;;;;;;4.75;2.85;;;;;;;49.27;9.12;98582.88;5094297;28;20028;-54
2023/07/03 06:47:30;;;;;;;5.18;2.70;;;;;;;48.87;8.73;98574.63;5093952;28;20036;-56
2023/07/03 06:49:56;;;;;;;6.65;3.20;;;;;;;48.02;9.47;98592.34;5094695;28;20315;-53
2023/07/03 06:52:21;;;;;;;5.50;3.08;;;;;;;46.60;10.70;98588.56;5092740;28;20032;-54
2023/07/03 06:54:47;;;;;;;5.57;3.40;;;;;;;47.49;10.10;98582.66;5092231;28;20074;-53
2023/07/03 06:57:13;;;;;;;11.95;3.20;;;;;;;48.75;8.69;98592.13;5094220;28;20366;-56
2023/07/03 06:59:39;;;;;;;7.15;2.90;;;;;;;49.80;8.67;98592.19;5094593;28;20075;-57
2023/07/03 07:02:05;;;;;;;4.80;2.70;;;;;;;51.25;7.00;98609.56;5093956;28;20082;-53
2023/07/03 07:04:31;;;;;;;4.03;2.90;;;;;;;52.24;6.36;98606.66;5093547;28;20082;-57
2023/07/03 07:06:57;;;;;;;6.30;3.50;;;;;;;52.10;6.52;98602.84;5094473;28;20056;-50
2023/07/03 07:09:23;;;;;;;7.28;3.00;;;;;;;51.97;6.43;98601.84;5093111;28;20032;-58
2023/07/03 07:11:48;;;;;;;7.43;3.22;;;;;;;51.85;6.52;98596.75;5089034;28;20124;-53
2023/07/03 07:14:14;;;;;;;5.28;3.03;;;;;;;52.22;6.51;98609.94;5072464;28;20084;-58
2023/07/03 07:16:40;;;;;;;7.80;4.00;;;;;;;52.90;5.65;98606.91;5073733;28;20047;-60
2023/07/03 07:19:09;;;;;;;7.03;3.53;;;;;;;53.06;6.27;98629.03;5073891;28;20047;-58
2023/07/03 07:21:38;;;;;;;4.35;3.95;;;;;;;51.68;6.90;98625.19;5073602;28;20158;-55
2023/07/03 07:24:24;;;;;;;9.18;3.58;;;;;;;52.67;6.94;98633.50;5073270;28;20029;-54
2023/07/03 07:26:54;;;;;;;5.30;3.30;;;;;;;50.83;6.93;98633.34;5072913;28;20040;-54
2023/07/03 07:29:21;;;;;;;6.25;3.55;;;;;;;48.57;8.69;98633.56;5073757;28;20043;-58
2023/07/03 07:31:47;;;;;;;5.88;3.55;;;;;;;48.65;8.44;98623.00;5072579;28;20024;-58
2023/07/03 07:34:12;;;;;;;6.93;3.20;;;;;;;47.89;8.98;98617.50;5072940;28;20040;-57
2023/07/03 07:36:39;;;;;;;9.75;3.05;;;;;;;47.69;8.84;98645.47;5072255;28;20032;-55
2023/07/03 07:39:06;;;;;;;7.88;3.05;;;;;;;47.38;9.11;98642.19;5072385;28;20121;-62
2023/07/03 07:41:32;;;;;;;7.57;3.00;;;;;;;48.89;8.05;98614.78;5066558;28;20411;-63
2023/07/03 07:44:01;;;;;;;5.55;2.78;;;;;;;50.67;6.58;98630.31;5071152;28;20107;-63
2023/07/03 07:46:29;;;;;;;4.18;3.28;;;;;;;51.53;5.79;98656.78;5072579;28;20454;-62
2023/07/03 07:48:59;;;;;;;7.30;3.10;;;;;;;51.99;5.30;98656.47;5071381;28;20327;-62
2023/07/03 07:51:25;;;;;;;6.25;2.70;;;;;;;52.67;4.55;98657.19;5071976;28;20121;-61
2023/07/03 07:53:52;;;;;;;6.78;3.58;;;;;;;53.27;4.94;98666.09;5070721;28;20024;-62
2023/07/03 07:56:18;;;;;;;8.48;3.63;;;;;;;53.45;4.33;98668.59;5082456;28;20448;-61
2023/07/03 07:58:43;;;;;;;5.53;3.53;;;;;;;53.73;4.81;98661.34;5069585;28;20081;-57
2023/07/03 08:01:12;;;;;;;10.18;3.92;;;;;;;54.61;4.23;98672.06;5067050;28;20048;-61
2023/07/03 08:03:39;;;;;;;8.55;3.83;;;;;;;55.08;3.88;98678.50;5075094;28;20112;-64
2023/07/03 08:06:05;;;;;;;7.13;4.43;;;;;;;54.60;3.45;98670.47;5071089;28;20040;-59
2023/07/03 08:08:32;;;;;;;4.63;3.97;;;;;;;53.79;4.11;98693.91;5071094;28;20436;-58
2023/07/03 08:11:02;;;;;;;7.30;3.42;;;;;;;53.58;4.45;98700.13;5082922;28;20746;-57
2023/07/03 08:13:32;;;;;;;5.47;3.78;;;;;;;53.27;5.15;98692.66;5080898;28;20341;-59
2023/07/03 08:15:58;;;;;;;6.32;3.38;;;;;;;52.37;4.85;98699.00;5072403;28;20094;-60
2023/07/03 08:18:24;;;;;;;7.47;3.60;;;;;;;51.68;5.26;98700.16;5071422;28;20382;-60
2023/07/03 08:20:50;;;;;;;5.57;3.60;;;;;;;50.83;5.65;98704.59;5072110;28;20094;-59
2023/07/03 08:23:16;;;;;;;4.10;3.30;;;;;;;49.62;6.04;98693.94;5072798;28;20032;-57
2023/07/03 08:25:42;;;;;;;3.22;2.70;;;;;;;48.22;6.97;98694.06;5075974;28;20021;-59
2023/07/03 08:28:09;;;;;;;4.75;2.38;;;;;;;45.27;8.44;98679.59;5071809;28;20478;-59
2023/07/03 08:30:36;;;;;;;7.97;2.25;;;;;;;42.21;10.73;98708.41;5071654;28;20033;-55
2023/07/03 08:33:02;;;;;;;6.15;2.30;;;;;;;39.17;13.02;98695.91;5071672;28;20031;-62
2023/07/03 08:35:28;;;;;;;6.18;2.47;;;;;;;36.79;14.98;98704.41;5071125;28;20309;-56
2023/07/03 08:37:54;;;;;;;5.93;2.50;;;;;;;35.10;16.97;98717.00;5072199;28;20040;-59
2023/07/03 08:40:21;;;;;;;5.40;2.40;;;;;;;33.32;18.48;98660.53;5069943;28;20033;-60
2023/07/03 08:42:53;;;;;;;7.95;2.10;;;;;;;32.53;19.55;98727.66;5080014;28;20020;-55
2023/07/03 08:45:20;;;;;;;4.47;2.30;;;;;;;31.60;20.52;98727.53;5074249;28;20126;-58
2023/07/03 08:47:49;;;;;;;6.10;2.25;;;;;;;30.89;21.35;98736.03;5071423;28;20028;-59
2023/07/03 08:50:19;;;;;;;5.97;2.42;;;;;;;30.32;22.54;98736.28;5071290;28;20094;-56
2023/07/03 08:52:56;;;;;;;2.53;1.80;;;;;;;29.83;22.38;98718.44;5071738;28;20121;-58
2023/07/03 08:55:27;;;;;;;3.30;1.85;;;;;;;29.58;23.38;98731.16;5072168;28;20028;-55
2023/07/03 08:57:52;;;;;;;3.28;1.75;;;;;;;29.03;24.36;98728.91;5075179;28;20803;-55
2023/07/03 09:00:20;;;;;;;5.07;2.13;;;;;;;28.51;25.56;98733.41;5086777;28;20074;-56
2023/07/03 09:03:13;;;;;;;3.35;2.08;;;;;;;28.39;25.19;98741.06;5092584;28;20032;-56
2023/07/03 09:05:57;;;;;;;3.67;2.20;;;;;;;28.26;25.93;98739.63;5095822;28;20482;-59
2023/07/03 09:08:51;;;;;;;6.55;2.20;;;;;;;28.39;24.72;98744.63;5095945;28;20074;-58
2023/07/03 09:11:18;;;;;;;3.78;1.88;;;;;;;28.08;25.92;98733.44;5054640;28;20044;-58
2023/07/03 09:13:49;;;;;;;4.88;2.60;;;;;;;28.08;25.58;98730.69;5078007;28;20024;-58
2023/07/03 09:16:23;;;;;;;4.40;2.22;;;;;;;28.21;24.21;98746.78;5095608;28;20032;-52
2023/07/03 09:18:53;;;;;;;8.02;2.28;;;;;;;28.04;24.88;98754.34;5091473;28;20391;-57
2023/07/03 09:21:21;;;;;;;5.35;2.55;;;;;;;27.94;25.36;98752.34;5095442;28;20160;-54
2023/07/03 09:23:53;;;;;;;4.00;2.17;;;;;;;27.86;25.59;98761.09;5076423;28;20392;-55
2023/07/03 09:26:25;;;;;;;5.13;2.35;;;;;;;27.78;26.34;98765.19;5074565;28;20177;-56
2023/07/03 09:28:57;;;;;;;5.30;2.65;;;;;;;27.72;26.58;98777.22;5074909;28;20040;-55
2023/07/03 09:31:23;;;;;;;6.30;2.33;;;;;;;27.70;26.44;98754.66;5075057;28;20024;-55
2023/07/03 09:33:48;;;;;;;7.38;2.38;;;;;;;27.80;27.04;98763.00;5074362;28;20031;-58
2023/07/03 09:36:29;;;;;;;4.53;2.30;;;;;;;28.01;25.94;98771.38;5074656;28;20020;-55
2023/07/03 09:38:54;;;;;;;6.80;2.30;;;;;;;27.77;26.83;98741.53;5069442;28;20036;-56
2023/07/03 09:41:39;;;;;;;3.75;2.72;;;;;;;28.08;26.22;98774.72;5074136;28;20032;-59
2023/07/03 09:44:17;;;;;;;5.82;2.60;;;;;;;27.87;27.35;98780.09;5055190;28;20462;-51
2023/07/03 09:46:43;;;;;;;3.50;2.40;;;;;;;27.87;27.04;98769.06;5054870;28;20037;-57
2023/07/03 09:49:28;;;;;;;5.57;2.58;;;;;;;28.08;27.03;98756.28;5065106;28;20060;-52
2023/07/03 09:51:58;;;;;;;6.20;2.37;;;;;;;28.45;26.97;98786.78;5074583;28;20037;-51
2023/07/03 09:54:28;;;;;;;7.20;2.50;;;;;;;28.60;27.07;98791.53;5078706;28;20020;-51
2023/07/03 09:56:56;;;;;;;5.97;2.55;;;;;;;28.66;27.23;98784.94;5083321;28;20713;-50
2023/07/03 09:59:24;;;;;;;5.65;2.60;;;;;;;28.43;27.32;98775.22;5078981;28;20367;-56
2023/07/03 10:01:57;;;;;;;6.40;2.47;;;;;;;28.42;25.65;98785.38;5074494;28;20124;-58
2023/07/03 10:04:23;;;;;;;8.48;2.95;;;;;;;28.09;25.20;98776.38;5065987;28;20032;-52
2023/07/03 10:06:58;;;;;;;5.55;2.70;;;;;;;28.26;25.16;98800.19;5054142;28;20045;-53
2023/07/03 10:09:29;;;;;;;8.05;2.53;;;;;;;28.03;25.71;98802.22;5058446;28;20040;-54
2023/07/03 10:12:02;;;;;;;8.18;2.63;;;;;;;27.97;26.82;98795.00;5072974;28;20086;-51
2023/07/03 10:14:36;;;;;;;5.47;2.28;;;;;;;27.86;26.49;98805.13;5077594;28;20407;-56
2023/07/03 10:17:04;;;;;;;6.25;2.60;;;;;;;27.61;27.39;98782.63;5075967;28;20089;-54
2023/07/03 10:19:34;;;;;;;5.60;2.38;;;;;;;27.97;26.94;98801.34;5075207;28;20036;-55
2023/07/03 10:22:00;;;;;;;5.45;2.75;;;;;;;28.01;27.04;98796.94;5073619;28;20102;-54
2023/07/03 10:24:25;;;;;;;6.22;2.80;;;;;;;28.13;26.47;98815.22;5078010;28;20028;-53
2023/07/03 10:26:57;;;;;;;6.68;2.38;;;;;;;28.08;26.71;98819.56;5073807;28;20090;-53
2023/07/03 10:29:28;;;;;;;4.60;2.38;;;;;;;27.97;25.95;98819.75;5074675;28;20034;-61
2023/07/03 10:32:09;;;;;;;5.00;2.70;;;;;;;28.02;25.80;98825.31;5074419;28;20035;-61
2023/07/03 10:34:52;;;;;;;5.88;2.80;;;;;;;27.99;25.93;98821.16;5088419;28;20188;-59
2023/07/03 10:37:20;;;;;;;6.20;2.60;;;;;;;27.64;26.22;98806.84;5074072;28;20388;-61
2023/07/03 10:40:00;;;;;;;7.03;2.63;;;;;;;28.06;26.16;98838.25;5092369;28;20111;-61
2023/07/03 10:42:48;;;;;;;4.55;2.60;;;;;;;28.29;26.01;98840.94;5081349;28;20423;-62
2023/07/03 10:45:14;;;;;;;6.55;2.53;;;;;;;28.15;26.34;98846.88;5086293;28;20039;-62
2023/07/03 10:47:48;;;;;;;8.18;2.85;;;;;;;28.21;26.33;98843.09;5093168;28;20046;-61
2023/07/03 10:50:17;;;;;;;4.82;2.58;;;;;;;28.06;26.29;98823.69;5094290;28;20457;-60
2023/07/03 10:53:01;;;;;;;7.57;2.50;;;;;;;28.04;26.57;98834.13;5093992;28;20031;-60
2023/07/03 10:55:36;;;;;;;3.42;2.80;;;;;;;27.85;26.65;98848.28;5091891;28;20450;-61
2023/07/03 10:58:22;;;;;;;5.93;2.83;;;;;;;27.53;26.68;98807.03;5077616;28;20107;-60
2023/07/03 11:00:57;;;;;;;6.55;2.67;;;;;;;27.79;27.49;98849.34;5073867;28;20028;-60
2023/07/03 11:03:47;;;;;;;3.37;2.13;;;;;;;27.82;27.37;98851.56;5073207;28;20028;-60
2023/07/03 11:06:31;;;;;;;4.20;2.60;;;;;;;28.10;26.89;98868.81;5073718;28;20036;-61
2023/07/03 11:09:27;;;;;;;4.43;2.25;;;;;;;28.40;26.48;98859.16;5072238;28;20036;-58
2023/07/03 11:12:00;;;;;;;6.18;2.33;;;;;;;28.35;25.80;98856.38;5070863;28;20013;-61
2023/07/03 11:15:03;;;;;;;5.88;2.60;;;;;;;28.46;25.67;98851.75;5070711;28;20447;-61
2023/07/03 11:17:45;;;;;;;4.35;2.15;;;;;;;28.29;25.84;98860.19;5071772;28;20024;-61
2023/07/03 11:20:21;;;;;;;7.43;2.33;;;;;;;28.30;25.70;98864.59;5073056;28;20438;-61
2023/07/03 11:23:00;;;;;;;6.60;2.40;;;;;;;28.21;24.91;98862.34;5090602;28;20035;-58
2023/07/03 11:25:41;;;;;;;5.15;2.40;;;;;;;28.18;24.94;98865.59;5092370;28;20032;-59
2023/07/03 11:28:18;;;;;;;8.75;2.45;;;;;;;28.08;24.69;98863.56;5077953;28;20447;-59
2023/07/03 11:30:45;;;;;;;3.95;2.50;;;;;;;27.96;25.61;98870.34;5072704;28;20210;-62
2023/07/03 11:33:13;;;;;;;7.70;2.42;;;;;;;27.76;26.14;98863.59;5071837;28;20072;-60
2023/07/03 11:35:53;;;;;;;5.63;3.03;;;;;;;27.77;26.08;98874.34;5072900;28;20111;-59
2023/07/03 11:38:19;;;;;;;7.60;2.67;;;;;;;27.64;27.03;98859.09;5074106;28;20055;-61
2023/07/03 11:40:54;;;;;;;6.15;2.38;;;;;;;27.63;26.51;98887.69;5073063;28;20036;-59